sensor_id;sensor_type;location;lat;lon;timestamp;P1;durP1;ratioP1;P2;durP2;ratioP2
20890;SDS011;10605;52.968;8.844;2022-10-19T00:01:07;9.27;;;2.50;;
20890;SDS011;10605;52.968;8.844;2022-10-19T00:03:42;9.77;;;2.13;;
20890;SDS011;10605;52.968;8.844;2022-10-19T00:06:10;7.43;;;2.22;;
20890;SDS011;10605;52.968;8.844;2022-10-19T00:08:36;12.20;;;2.63;;
20890;SDS011;10605;52.968;8.844;2022-10-19T00:11:02;11.27;;;2.05;;
20890;SDS011;10605;52.968;8.844;2022-10-19T00:13:27;6.32;;;2.10;;
20890;SDS011;10605;52.968;8.844;2022-10-19T00:15:53;12.20;;;2.05;;
20890;SDS011;10605;52.968;8.844;2022-10-19T00:18:19;4.75;;;1.70;;
20890;SDS011;10605;52.968;8.844;2022-10-19T00:20:45;8.70;;;2.50;;
20890;SDS011;10605;52.968;8.844;2022-10-19T00:23:10;10.18;;;2.00;;
20890;SDS011;10605;52.968;8.844;2022-10-19T00:25:36;8.63;;;2.13;;
20890;SDS011;10605;52.968;8.844;2022-10-19T00:28:02;3.88;;;1.33;;
20890;SDS011;10605;52.968;8.844;2022-10-19T00:30:28;11.45;;;2.10;;
20890;SDS011;10605;52.968;8.844;2022-10-19T00:32:54;6.60;;;1.80;;
20890;SDS011;10605;52.968;8.844;2022-10-19T00:35:19;7.07;;;1.70;;
20890;SDS011;10605;52.968;8.844;2022-10-19T00:37:48;9.00;;;1.55;;
20890;SDS011;10605;52.968;8.844;2022-10-19T00:40:13;5.63;;;1.52;;
20890;SDS011;10605;52.968;8.844;2022-10-19T00:42:39;6.18;;;1.92;;
20890;SDS011;10605;52.968;8.844;2022-10-19T00:45:08;9.52;;;1.83;;
20890;SDS011;10605;52.968;8.844;2022-10-19T00:47:41;9.35;;;2.10;;
20890;SDS011;10605;52.968;8.844;2022-10-19T00:50:13;7.28;;;2.08;;
20890;SDS011;10605;52.968;8.844;2022-10-19T00:52:41;9.52;;;2.47;;
20890;SDS011;10605;52.968;8.844;2022-10-19T00:55:07;12.23;;;1.67;;
20890;SDS011;10605;52.968;8.844;2022-10-19T00:57:34;4.93;;;1.73;;
20890;SDS011;10605;52.968;8.844;2022-10-19T01:00:00;8.98;;;1.75;;
20890;SDS011;10605;52.968;8.844;2022-10-19T01:02:29;18.30;;;1.92;;
20890;SDS011;10605;52.968;8.844;2022-10-19T01:04:54;14.93;;;1.67;;
20890;SDS011;10605;52.968;8.844;2022-10-19T01:07:20;7.28;;;1.80;;
20890;SDS011;10605;52.968;8.844;2022-10-19T01:09:50;8.00;;;1.70;;
20890;SDS011;10605;52.968;8.844;2022-10-19T01:17:57;6.72;;;1.27;;
20890;SDS011;10605;52.968;8.844;2022-10-19T01:32:06;5.65;;;1.50;;
20890;SDS011;10605;52.968;8.844;2022-10-19T01:34:38;3.78;;;1.67;;
20890;SDS011;10605;52.968;8.844;2022-10-19T01:37:16;8.90;;;2.05;;
20890;SDS011;10605;52.968;8.844;2022-10-19T01:39:51;4.25;;;1.80;;
20890;SDS011;10605;52.968;8.844;2022-10-19T01:43:02;6.57;;;1.58;;
20890;SDS011;10605;52.968;8.844;2022-10-19T01:45:42;8.63;;;1.83;;
20890;SDS011;10605;52.968;8.844;2022-10-19T01:48:17;10.43;;;1.83;;
20890;SDS011;10605;52.968;8.844;2022-10-19T01:50:54;6.85;;;1.73;;
20890;SDS011;10605;52.968;8.844;2022-10-19T01:53:32;5.47;;;1.88;;
20890;SDS011;10605;52.968;8.844;2022-10-19T01:56:03;5.53;;;1.33;;
20890;SDS011;10605;52.968;8.844;2022-10-19T01:58:33;7.25;;;1.48;;
20890;SDS011;10605;52.968;8.844;2022-10-19T02:01:03;10.45;;;1.75;;
20890;SDS011;10605;52.968;8.844;2022-10-19T02:03:33;5.95;;;1.60;;
20890;SDS011;10605;52.968;8.844;2022-10-19T02:06:04;10.75;;;1.90;;
20890;SDS011;10605;52.968;8.844;2022-10-19T02:08:39;6.55;;;1.58;;
20890;SDS011;10605;52.968;8.844;2022-10-19T02:11:08;6.60;;;1.70;;
20890;SDS011;10605;52.968;8.844;2022-10-19T02:13:34;5.55;;;1.90;;
20890;SDS011;10605;52.968;8.844;2022-10-19T02:16:07;5.78;;;1.50;;
20890;SDS011;10605;52.968;8.844;2022-10-19T02:18:48;6.10;;;1.45;;
20890;SDS011;10605;52.968;8.844;2022-10-19T02:21:19;8.95;;;1.60;;
20890;SDS011;10605;52.968;8.844;2022-10-19T02:23:44;8.90;;;1.50;;
20890;SDS011;10605;52.968;8.844;2022-10-19T02:26:10;7.47;;;1.77;;
20890;SDS011;10605;52.968;8.844;2022-10-19T02:28:36;7.15;;;1.60;;
20890;SDS011;10605;52.968;8.844;2022-10-19T02:31:02;8.68;;;1.75;;
20890;SDS011;10605;52.968;8.844;2022-10-19T02:33:31;7.95;;;2.33;;
20890;SDS011;10605;52.968;8.844;2022-10-19T02:35:57;3.90;;;1.52;;
20890;SDS011;10605;52.968;8.844;2022-10-19T02:38:23;9.40;;;2.22;;
20890;SDS011;10605;52.968;8.844;2022-10-19T02:40:51;7.15;;;1.67;;
20890;SDS011;10605;52.968;8.844;2022-10-19T02:43:24;7.65;;;1.90;;
20890;SDS011;10605;52.968;8.844;2022-10-19T02:45:58;5.47;;;1.60;;
20890;SDS011;10605;52.968;8.844;2022-10-19T02:48:26;8.68;;;1.38;;
20890;SDS011;10605;52.968;8.844;2022-10-19T02:50:55;8.25;;;1.40;;
20890;SDS011;10605;52.968;8.844;2022-10-19T02:53:21;7.03;;;1.50;;
20890;SDS011;10605;52.968;8.844;2022-10-19T02:55:48;8.60;;;1.80;;
20890;SDS011;10605;52.968;8.844;2022-10-19T02:58:14;5.57;;;1.38;;
20890;SDS011;10605;52.968;8.844;2022-10-19T03:00:40;4.53;;;1.33;;
20890;SDS011;10605;52.968;8.844;2022-10-19T03:03:05;8.65;;;1.58;;
20890;SDS011;10605;52.968;8.844;2022-10-19T03:05:34;9.70;;;1.98;;
20890;SDS011;10605;52.968;8.844;2022-10-19T03:08:00;7.25;;;1.73;;
20890;SDS011;10605;52.968;8.844;2022-10-19T03:10:25;3.10;;;1.50;;
20890;SDS011;10605;52.968;8.844;2022-10-19T03:12:51;5.90;;;1.52;;
20890;SDS011;10605;52.968;8.844;2022-10-19T03:15:17;6.28;;;2.00;;
20890;SDS011;10605;52.968;8.844;2022-10-19T03:17:51;9.38;;;1.60;;
20890;SDS011;10605;52.968;8.844;2022-10-19T03:20:17;11.50;;;1.42;;
20890;SDS011;10605;52.968;8.844;2022-10-19T03:22:43;7.72;;;1.52;;
20890;SDS011;10605;52.968;8.844;2022-10-19T03:25:08;7.78;;;1.40;;
20890;SDS011;10605;52.968;8.844;2022-10-19T03:27:34;2.55;;;1.40;;
20890;SDS011;10605;52.968;8.844;2022-10-19T03:30:00;11.35;;;1.70;;
20890;SDS011;10605;52.968;8.844;2022-10-19T03:32:28;6.18;;;1.50;;
20890;SDS011;10605;52.968;8.844;2022-10-19T03:34:54;8.45;;;1.85;;
20890;SDS011;10605;52.968;8.844;2022-10-19T03:37:19;6.60;;;1.63;;
20890;SDS011;10605;52.968;8.844;2022-10-19T03:39:45;10.38;;;1.80;;
20890;SDS011;10605;52.968;8.844;2022-10-19T03:42:10;7.55;;;1.70;;
20890;SDS011;10605;52.968;8.844;2022-10-19T03:44:36;3.08;;;1.63;;
20890;SDS011;10605;52.968;8.844;2022-10-19T03:47:01;8.85;;;1.65;;
20890;SDS011;10605;52.968;8.844;2022-10-19T03:49:28;8.52;;;1.58;;
20890;SDS011;10605;52.968;8.844;2022-10-19T03:52:02;5.70;;;1.45;;
20890;SDS011;10605;52.968;8.844;2022-10-19T03:54:28;4.05;;;1.70;;
20890;SDS011;10605;52.968;8.844;2022-10-19T03:56:53;9.35;;;2.33;;
20890;SDS011;10605;52.968;8.844;2022-10-19T03:59:19;7.53;;;2.10;;
20890;SDS011;10605;52.968;8.844;2022-10-19T04:01:48;5.97;;;1.58;;
20890;SDS011;10605;52.968;8.844;2022-10-19T04:04:15;7.63;;;1.85;;
20890;SDS011;10605;52.968;8.844;2022-10-19T04:06:43;8.98;;;1.77;;
20890;SDS011;10605;52.968;8.844;2022-10-19T04:09:11;8.68;;;1.80;;
20890;SDS011;10605;52.968;8.844;2022-10-19T04:11:41;5.25;;;1.20;;
20890;SDS011;10605;52.968;8.844;2022-10-19T04:14:08;12.27;;;1.90;;
20890;SDS011;10605;52.968;8.844;2022-10-19T04:16:36;21.95;;;2.15;;
20890;SDS011;10605;52.968;8.844;2022-10-19T04:19:02;6.40;;;1.55;;
20890;SDS011;10605;52.968;8.844;2022-10-19T04:21:29;9.80;;;1.80;;
20890;SDS011;10605;52.968;8.844;2022-10-19T04:23:58;8.50;;;1.52;;
20890;SDS011;10605;52.968;8.844;2022-10-19T04:26:31;8.65;;;1.85;;
20890;SDS011;10605;52.968;8.844;2022-10-19T04:28:58;17.08;;;2.20;;
20890;SDS011;10605;52.968;8.844;2022-10-19T04:31:24;11.85;;;1.50;;
20890;SDS011;10605;52.968;8.844;2022-10-19T04:33:53;11.75;;;1.63;;
20890;SDS011;10605;52.968;8.844;2022-10-19T04:36:20;12.43;;;1.65;;
20890;SDS011;10605;52.968;8.844;2022-10-19T04:38:46;11.55;;;1.85;;
20890;SDS011;10605;52.968;8.844;2022-10-19T04:41:12;10.18;;;2.30;;
20890;SDS011;10605;52.968;8.844;2022-10-19T04:43:40;10.65;;;1.80;;
20890;SDS011;10605;52.968;8.844;2022-10-19T04:46:10;11.13;;;2.15;;
20890;SDS011;10605;52.968;8.844;2022-10-19T04:48:38;12.82;;;2.00;;
20890;SDS011;10605;52.968;8.844;2022-10-19T04:51:05;13.60;;;1.80;;
20890;SDS011;10605;52.968;8.844;2022-10-19T04:53:35;7.65;;;1.80;;
20890;SDS011;10605;52.968;8.844;2022-10-19T04:56:05;9.20;;;1.95;;
20890;SDS011;10605;52.968;8.844;2022-10-19T04:58:36;9.38;;;2.05;;
20890;SDS011;10605;52.968;8.844;2022-10-19T05:01:06;20.90;;;2.30;;
20890;SDS011;10605;52.968;8.844;2022-10-19T05:03:42;8.63;;;1.75;;
20890;SDS011;10605;52.968;8.844;2022-10-19T05:06:08;14.40;;;1.65;;
20890;SDS011;10605;52.968;8.844;2022-10-19T05:08:35;11.95;;;1.80;;
20890;SDS011;10605;52.968;8.844;2022-10-19T05:11:06;9.13;;;2.38;;
20890;SDS011;10605;52.968;8.844;2022-10-19T05:13:44;9.40;;;1.67;;
20890;SDS011;10605;52.968;8.844;2022-10-19T05:16:13;11.05;;;1.80;;
20890;SDS011;10605;52.968;8.844;2022-10-19T05:18:41;9.00;;;1.40;;
20890;SDS011;10605;52.968;8.844;2022-10-19T05:21:11;10.93;;;1.83;;
20890;SDS011;10605;52.968;8.844;2022-10-19T05:23:46;7.80;;;1.50;;
20890;SDS011;10605;52.968;8.844;2022-10-19T05:26:17;7.22;;;2.00;;
20890;SDS011;10605;52.968;8.844;2022-10-19T05:28:48;10.27;;;1.85;;
20890;SDS011;10605;52.968;8.844;2022-10-19T05:31:24;11.93;;;1.60;;
20890;SDS011;10605;52.968;8.844;2022-10-19T05:33:55;5.82;;;1.33;;
20890;SDS011;10605;52.968;8.844;2022-10-19T05:36:25;10.95;;;1.35;;
20890;SDS011;10605;52.968;8.844;2022-10-19T05:39:00;6.68;;;1.23;;
20890;SDS011;10605;52.968;8.844;2022-10-19T05:41:28;8.15;;;1.10;;
20890;SDS011;10605;52.968;8.844;2022-10-19T05:43:57;7.00;;;1.02;;
20890;SDS011;10605;52.968;8.844;2022-10-19T05:46:26;6.40;;;1.10;;
20890;SDS011;10605;52.968;8.844;2022-10-19T05:48:54;6.53;;;1.23;;
20890;SDS011;10605;52.968;8.844;2022-10-19T05:51:24;9.10;;;1.00;;
20890;SDS011;10605;52.968;8.844;2022-10-19T05:53:52;10.30;;;1.85;;
20890;SDS011;10605;52.968;8.844;2022-10-19T05:56:21;7.45;;;1.33;;
20890;SDS011;10605;52.968;8.844;2022-10-19T05:58:54;8.95;;;1.20;;
20890;SDS011;10605;52.968;8.844;2022-10-19T06:01:23;3.78;;;1.17;;
20890;SDS011;10605;52.968;8.844;2022-10-19T06:03:55;7.40;;;1.65;;
20890;SDS011;10605;52.968;8.844;2022-10-19T06:06:22;6.38;;;1.27;;
20890;SDS011;10605;52.968;8.844;2022-10-19T06:08:50;11.25;;;1.15;;
20890;SDS011;10605;52.968;8.844;2022-10-19T06:11:18;4.38;;;1.15;;
20890;SDS011;10605;52.968;8.844;2022-10-19T06:13:52;4.38;;;1.00;;
20890;SDS011;10605;52.968;8.844;2022-10-19T06:16:22;9.38;;;1.38;;
20890;SDS011;10605;52.968;8.844;2022-10-19T06:18:50;6.63;;;1.02;;
20890;SDS011;10605;52.968;8.844;2022-10-19T06:21:18;6.68;;;1.23;;
20890;SDS011;10605;52.968;8.844;2022-10-19T06:23:48;9.32;;;1.05;;
20890;SDS011;10605;52.968;8.844;2022-10-19T06:26:21;4.35;;;1.17;;
20890;SDS011;10605;52.968;8.844;2022-10-19T06:28:53;5.43;;;0.93;;
20890;SDS011;10605;52.968;8.844;2022-10-19T06:31:24;7.57;;;1.30;;
20890;SDS011;10605;52.968;8.844;2022-10-19T06:33:51;13.10;;;0.90;;
20890;SDS011;10605;52.968;8.844;2022-10-19T06:36:18;7.32;;;1.38;;
20890;SDS011;10605;52.968;8.844;2022-10-19T06:38:46;4.95;;;1.30;;
20890;SDS011;10605;52.968;8.844;2022-10-19T06:41:12;12.23;;;1.50;;
20890;SDS011;10605;52.968;8.844;2022-10-19T06:43:41;4.05;;;1.25;;
20890;SDS011;10605;52.968;8.844;2022-10-19T06:46:08;11.07;;;0.98;;
20890;SDS011;10605;52.968;8.844;2022-10-19T06:48:36;9.05;;;1.13;;
20890;SDS011;10605;52.968;8.844;2022-10-19T06:51:03;6.35;;;1.10;;
20890;SDS011;10605;52.968;8.844;2022-10-19T06:53:31;6.75;;;1.25;;
20890;SDS011;10605;52.968;8.844;2022-10-19T06:55:58;6.18;;;1.20;;
20890;SDS011;10605;52.968;8.844;2022-10-19T06:58:26;10.63;;;1.30;;
20890;SDS011;10605;52.968;8.844;2022-10-19T07:00:58;6.60;;;0.98;;
20890;SDS011;10605;52.968;8.844;2022-10-19T07:03:25;9.25;;;1.20;;
20890;SDS011;10605;52.968;8.844;2022-10-19T07:05:53;4.57;;;0.98;;
20890;SDS011;10605;52.968;8.844;2022-10-19T07:08:23;5.95;;;1.70;;
20890;SDS011;10605;52.968;8.844;2022-10-19T07:10:50;6.15;;;0.82;;
20890;SDS011;10605;52.968;8.844;2022-10-19T07:13:17;7.20;;;1.35;;
20890;SDS011;10605;52.968;8.844;2022-10-19T07:15:43;7.43;;;0.88;;
20890;SDS011;10605;52.968;8.844;2022-10-19T07:18:09;8.10;;;1.13;;
20890;SDS011;10605;52.968;8.844;2022-10-19T07:20:34;8.23;;;1.42;;
20890;SDS011;10605;52.968;8.844;2022-10-19T07:23:03;2.97;;;1.27;;
20890;SDS011;10605;52.968;8.844;2022-10-19T07:25:31;8.25;;;1.98;;
20890;SDS011;10605;52.968;8.844;2022-10-19T07:27:57;9.07;;;1.10;;
20890;SDS011;10605;52.968;8.844;2022-10-19T07:30:23;3.15;;;1.05;;
20890;SDS011;10605;52.968;8.844;2022-10-19T07:32:49;5.15;;;1.20;;
20890;SDS011;10605;52.968;8.844;2022-10-19T07:35:15;6.97;;;0.90;;
20890;SDS011;10605;52.968;8.844;2022-10-19T07:37:43;3.95;;;0.93;;
20890;SDS011;10605;52.968;8.844;2022-10-19T07:40:12;9.15;;;1.23;;
20890;SDS011;10605;52.968;8.844;2022-10-19T07:42:37;7.55;;;1.88;;
20890;SDS011;10605;52.968;8.844;2022-10-19T07:45:03;4.72;;;0.88;;
20890;SDS011;10605;52.968;8.844;2022-10-19T07:47:29;8.32;;;1.33;;
20890;SDS011;10605;52.968;8.844;2022-10-19T07:50:00;3.05;;;0.80;;
20890;SDS011;10605;52.968;8.844;2022-10-19T07:52:25;9.85;;;1.20;;
20890;SDS011;10605;52.968;8.844;2022-10-19T07:54:51;2.35;;;1.00;;
20890;SDS011;10605;52.968;8.844;2022-10-19T07:57:17;4.90;;;0.88;;
20890;SDS011;10605;52.968;8.844;2022-10-19T07:59:43;5.20;;;1.00;;
20890;SDS011;10605;52.968;8.844;2022-10-19T08:02:13;6.90;;;1.00;;
20890;SDS011;10605;52.968;8.844;2022-10-19T08:04:42;5.47;;;1.00;;
20890;SDS011;10605;52.968;8.844;2022-10-19T08:07:08;6.43;;;1.15;;
20890;SDS011;10605;52.968;8.844;2022-10-19T08:09:34;5.72;;;0.90;;
20890;SDS011;10605;52.968;8.844;2022-10-19T08:12:00;6.20;;;1.48;;
20890;SDS011;10605;52.968;8.844;2022-10-19T08:14:26;5.85;;;1.00;;
20890;SDS011;10605;52.968;8.844;2022-10-19T08:16:52;5.15;;;1.17;;
20890;SDS011;10605;52.968;8.844;2022-10-19T08:19:17;7.10;;;1.17;;
20890;SDS011;10605;52.968;8.844;2022-10-19T08:21:44;5.75;;;0.70;;
20890;SDS011;10605;52.968;8.844;2022-10-19T08:24:11;6.38;;;1.20;;
20890;SDS011;10605;52.968;8.844;2022-10-19T08:26:39;6.10;;;0.90;;
20890;SDS011;10605;52.968;8.844;2022-10-19T08:31:33;6.28;;;0.90;;
20890;SDS011;10605;52.968;8.844;2022-10-19T08:33:59;6.10;;;0.88;;
20890;SDS011;10605;52.968;8.844;2022-10-19T08:36:26;2.83;;;0.70;;
20890;SDS011;10605;52.968;8.844;2022-10-19T08:38:55;5.22;;;1.90;;
20890;SDS011;10605;52.968;8.844;2022-10-19T08:44:19;4.28;;;0.85;;
20890;SDS011;10605;52.968;8.844;2022-10-19T08:49:49;2.60;;;0.75;;
20890;SDS011;10605;52.968;8.844;2022-10-19T08:52:18;3.75;;;1.00;;
20890;SDS011;10605;52.968;8.844;2022-10-19T08:55:02;5.85;;;1.05;;
20890;SDS011;10605;52.968;8.844;2022-10-19T09:08:25;3.17;;;0.85;;
20890;SDS011;10605;52.968;8.844;2022-10-19T09:10:52;4.82;;;1.15;;
20890;SDS011;10605;52.968;8.844;2022-10-19T09:16:01;2.22;;;1.02;;
20890;SDS011;10605;52.968;8.844;2022-10-19T09:18:31;3.42;;;0.70;;
20890;SDS011;10605;52.968;8.844;2022-10-19T09:23:35;4.07;;;0.90;;
20890;SDS011;10605;52.968;8.844;2022-10-19T09:26:02;6.15;;;0.82;;
20890;SDS011;10605;52.968;8.844;2022-10-19T09:28:39;5.60;;;1.15;;
20890;SDS011;10605;52.968;8.844;2022-10-19T09:31:14;8.10;;;1.20;;
20890;SDS011;10605;52.968;8.844;2022-10-19T09:33:56;6.47;;;0.90;;
20890;SDS011;10605;52.968;8.844;2022-10-19T09:36:31;3.95;;;0.98;;
20890;SDS011;10605;52.968;8.844;2022-10-19T09:39:05;5.32;;;1.33;;
20890;SDS011;10605;52.968;8.844;2022-10-19T09:41:33;10.23;;;1.00;;
20890;SDS011;10605;52.968;8.844;2022-10-19T09:43:59;4.85;;;1.00;;
20890;SDS011;10605;52.968;8.844;2022-10-19T09:46:44;2.90;;;0.70;;
20890;SDS011;10605;52.968;8.844;2022-10-19T09:49:18;4.25;;;1.15;;
20890;SDS011;10605;52.968;8.844;2022-10-19T09:52:02;11.57;;;1.02;;
20890;SDS011;10605;52.968;8.844;2022-10-19T09:54:33;4.72;;;0.90;;
20890;SDS011;10605;52.968;8.844;2022-10-19T09:57:01;9.82;;;1.30;;
20890;SDS011;10605;52.968;8.844;2022-10-19T09:59:29;5.75;;;1.10;;
20890;SDS011;10605;52.968;8.844;2022-10-19T10:02:03;3.83;;;1.35;;
20890;SDS011;10605;52.968;8.844;2022-10-19T10:04:45;8.65;;;1.75;;
20890;SDS011;10605;52.968;8.844;2022-10-19T10:07:19;5.78;;;1.30;;
20890;SDS011;10605;52.968;8.844;2022-10-19T10:09:45;7.18;;;1.33;;
20890;SDS011;10605;52.968;8.844;2022-10-19T10:12:12;3.80;;;1.40;;
20890;SDS011;10605;52.968;8.844;2022-10-19T10:14:39;4.35;;;1.08;;
20890;SDS011;10605;52.968;8.844;2022-10-19T10:17:06;5.55;;;1.10;;
20890;SDS011;10605;52.968;8.844;2022-10-19T10:22:29;6.75;;;1.65;;
20890;SDS011;10605;52.968;8.844;2022-10-19T10:25:00;4.25;;;1.15;;
20890;SDS011;10605;52.968;8.844;2022-10-19T10:27:31;7.57;;;1.00;;
20890;SDS011;10605;52.968;8.844;2022-10-19T10:30:04;2.80;;;1.00;;
20890;SDS011;10605;52.968;8.844;2022-10-19T10:32:48;7.82;;;1.27;;
20890;SDS011;10605;52.968;8.844;2022-10-19T10:35:26;3.05;;;0.80;;
20890;SDS011;10605;52.968;8.844;2022-10-19T10:38:10;5.68;;;1.70;;
20890;SDS011;10605;52.968;8.844;2022-10-19T10:41:00;4.13;;;1.10;;
20890;SDS011;10605;52.968;8.844;2022-10-19T10:46:36;1.73;;;0.75;;
20890;SDS011;10605;52.968;8.844;2022-10-19T10:49:28;3.05;;;1.00;;
20890;SDS011;10605;52.968;8.844;2022-10-19T10:52:04;9.00;;;1.33;;
20890;SDS011;10605;52.968;8.844;2022-10-19T10:54:37;3.53;;;0.90;;
20890;SDS011;10605;52.968;8.844;2022-10-19T10:57:22;5.60;;;1.00;;
20890;SDS011;10605;52.968;8.844;2022-10-19T11:00:19;2.13;;;0.80;;
20890;SDS011;10605;52.968;8.844;2022-10-19T11:05:40;4.50;;;1.05;;
20890;SDS011;10605;52.968;8.844;2022-10-19T11:11:33;2.70;;;0.98;;
20890;SDS011;10605;52.968;8.844;2022-10-19T11:16:55;8.10;;;1.00;;
20890;SDS011;10605;52.968;8.844;2022-10-19T11:19:39;2.42;;;0.90;;
20890;SDS011;10605;52.968;8.844;2022-10-19T13:00:00;3.47;;;1.20;;
20890;SDS011;10605;52.968;8.844;2022-10-19T14:42:59;5.38;;;1.38;;
20890;SDS011;10605;52.968;8.844;2022-10-19T14:46:29;6.07;;;1.10;;
20890;SDS011;10605;52.968;8.844;2022-10-19T14:50:14;4.65;;;1.02;;
20890;SDS011;10605;52.968;8.844;2022-10-19T15:00:37;4.13;;;1.65;;
20890;SDS011;10605;52.968;8.844;2022-10-19T15:07:38;2.55;;;1.42;;
20890;SDS011;10605;52.968;8.844;2022-10-19T15:21:43;8.00;;;1.30;;
20890;SDS011;10605;52.968;8.844;2022-10-19T15:35:44;3.30;;;1.52;;
20890;SDS011;10605;52.968;8.844;2022-10-19T16:17:08;5.53;;;1.45;;
20890;SDS011;10605;52.968;8.844;2022-10-19T16:51:37;6.38;;;2.20;;
20890;SDS011;10605;52.968;8.844;2022-10-19T16:58:28;7.13;;;2.47;;
20890;SDS011;10605;52.968;8.844;2022-10-19T17:48:36;7.15;;;3.05;;
20890;SDS011;10605;52.968;8.844;2022-10-19T17:55:21;3.67;;;2.83;;
20890;SDS011;10605;52.968;8.844;2022-10-19T18:01:28;2.83;;;2.60;;
20890;SDS011;10605;52.968;8.844;2022-10-19T18:04:30;5.82;;;2.90;;
20890;SDS011;10605;52.968;8.844;2022-10-19T18:34:02;12.45;;;4.30;;
20890;SDS011;10605;52.968;8.844;2022-10-19T18:41:06;8.07;;;3.72;;
20890;SDS011;10605;52.968;8.844;2022-10-19T18:46:33;9.18;;;4.28;;
20890;SDS011;10605;52.968;8.844;2022-10-19T18:53:05;8.10;;;3.75;;
20890;SDS011;10605;52.968;8.844;2022-10-19T18:55:33;5.57;;;3.47;;
20890;SDS011;10605;52.968;8.844;2022-10-19T18:58:01;5.97;;;4.15;;
20890;SDS011;10605;52.968;8.844;2022-10-19T19:00:27;8.43;;;4.47;;
20890;SDS011;10605;52.968;8.844;2022-10-19T19:03:13;5.60;;;4.10;;
20890;SDS011;10605;52.968;8.844;2022-10-19T19:05:39;5.38;;;3.63;;
20890;SDS011;10605;52.968;8.844;2022-10-19T19:08:05;8.00;;;3.90;;
20890;SDS011;10605;52.968;8.844;2022-10-19T19:10:30;10.60;;;4.63;;
20890;SDS011;10605;52.968;8.844;2022-10-19T19:12:59;13.43;;;5.70;;
20890;SDS011;10605;52.968;8.844;2022-10-19T19:15:25;10.63;;;5.13;;
20890;SDS011;10605;52.968;8.844;2022-10-19T19:17:52;10.50;;;6.03;;
20890;SDS011;10605;52.968;8.844;2022-10-19T19:20:29;9.95;;;6.55;;
20890;SDS011;10605;52.968;8.844;2022-10-19T19:22:57;21.83;;;7.78;;
20890;SDS011;10605;52.968;8.844;2022-10-19T19:25:32;16.48;;;8.70;;
20890;SDS011;10605;52.968;8.844;2022-10-19T19:27:57;12.90;;;7.50;;
20890;SDS011;10605;52.968;8.844;2022-10-19T19:30:23;8.98;;;7.63;;
20890;SDS011;10605;52.968;8.844;2022-10-19T19:32:50;14.13;;;8.30;;
20890;SDS011;10605;52.968;8.844;2022-10-19T19:35:16;14.40;;;8.40;;
20890;SDS011;10605;52.968;8.844;2022-10-19T19:37:42;17.00;;;8.75;;
20890;SDS011;10605;52.968;8.844;2022-10-19T19:40:13;11.25;;;8.18;;
20890;SDS011;10605;52.968;8.844;2022-10-19T19:42:41;19.90;;;8.95;;
20890;SDS011;10605;52.968;8.844;2022-10-19T19:45:07;11.73;;;8.50;;
20890;SDS011;10605;52.968;8.844;2022-10-19T19:47:33;12.15;;;8.55;;
20890;SDS011;10605;52.968;8.844;2022-10-19T19:49:59;12.25;;;8.75;;
20890;SDS011;10605;52.968;8.844;2022-10-19T19:52:27;14.65;;;8.32;;
20890;SDS011;10605;52.968;8.844;2022-10-19T19:54:53;9.23;;;8.15;;
20890;SDS011;10605;52.968;8.844;2022-10-19T19:57:18;15.65;;;8.50;;
20890;SDS011;10605;52.968;8.844;2022-10-19T19:59:44;14.82;;;8.45;;
20890;SDS011;10605;52.968;8.844;2022-10-19T20:02:12;14.57;;;7.78;;
20890;SDS011;10605;52.968;8.844;2022-10-19T20:04:40;17.13;;;8.65;;
20890;SDS011;10605;52.968;8.844;2022-10-19T20:07:06;17.90;;;8.48;;
20890;SDS011;10605;52.968;8.844;2022-10-19T20:09:32;14.20;;;8.48;;
20890;SDS011;10605;52.968;8.844;2022-10-19T20:11:58;13.95;;;8.48;;
20890;SDS011;10605;52.968;8.844;2022-10-19T20:14:24;13.13;;;8.27;;
20890;SDS011;10605;52.968;8.844;2022-10-19T20:16:50;12.45;;;8.20;;
20890;SDS011;10605;52.968;8.844;2022-10-19T20:19:15;16.77;;;8.18;;
20890;SDS011;10605;52.968;8.844;2022-10-19T20:21:43;14.20;;;8.23;;
20890;SDS011;10605;52.968;8.844;2022-10-19T20:24:16;10.35;;;7.20;;
20890;SDS011;10605;52.968;8.844;2022-10-19T20:26:42;11.80;;;7.28;;
20890;SDS011;10605;52.968;8.844;2022-10-19T20:29:08;21.75;;;8.48;;
20890;SDS011;10605;52.968;8.844;2022-10-19T20:31:33;19.15;;;8.35;;
20890;SDS011;10605;52.968;8.844;2022-10-19T20:34:05;9.10;;;8.05;;
20890;SDS011;10605;52.968;8.844;2022-10-19T20:36:35;17.83;;;7.75;;
20890;SDS011;10605;52.968;8.844;2022-10-19T20:39:01;16.85;;;8.32;;
20890;SDS011;10605;52.968;8.844;2022-10-19T20:41:27;15.55;;;8.20;;
20890;SDS011;10605;52.968;8.844;2022-10-19T20:43:53;13.73;;;7.35;;
20890;SDS011;10605;52.968;8.844;2022-10-19T20:46:20;13.70;;;7.55;;
20890;SDS011;10605;52.968;8.844;2022-10-19T20:48:48;14.65;;;7.05;;
20890;SDS011;10605;52.968;8.844;2022-10-19T20:53:53;8.43;;;6.65;;
20890;SDS011;10605;52.968;8.844;2022-10-19T20:56:23;14.25;;;6.45;;
20890;SDS011;10605;52.968;8.844;2022-10-19T20:58:57;11.65;;;6.30;;
20890;SDS011;10605;52.968;8.844;2022-10-19T21:01:30;10.00;;;6.38;;
20890;SDS011;10605;52.968;8.844;2022-10-19T21:03:59;12.20;;;5.93;;
20890;SDS011;10605;52.968;8.844;2022-10-19T21:06:27;16.08;;;6.00;;
20890;SDS011;10605;52.968;8.844;2022-10-19T21:08:55;10.68;;;5.82;;
20890;SDS011;10605;52.968;8.844;2022-10-19T21:11:23;14.68;;;5.78;;
20890;SDS011;10605;52.968;8.844;2022-10-19T21:13:52;12.23;;;5.20;;
20890;SDS011;10605;52.968;8.844;2022-10-19T21:16:22;11.80;;;5.57;;
20890;SDS011;10605;52.968;8.844;2022-10-19T21:18:52;9.88;;;5.82;;
20890;SDS011;10605;52.968;8.844;2022-10-19T21:21:22;10.18;;;5.05;;
20890;SDS011;10605;52.968;8.844;2022-10-19T21:23:51;9.85;;;5.45;;
20890;SDS011;10605;52.968;8.844;2022-10-19T21:26:19;11.82;;;5.78;;
20890;SDS011;10605;52.968;8.844;2022-10-19T21:28:46;8.43;;;5.57;;
20890;SDS011;10605;52.968;8.844;2022-10-19T21:31:12;8.13;;;5.43;;
20890;SDS011;10605;52.968;8.844;2022-10-19T21:33:39;10.38;;;5.03;;
20890;SDS011;10605;52.968;8.844;2022-10-19T21:36:05;7.00;;;5.00;;
20890;SDS011;10605;52.968;8.844;2022-10-19T21:38:31;6.78;;;4.78;;
20890;SDS011;10605;52.968;8.844;2022-10-19T21:41:01;8.38;;;5.25;;
20890;SDS011;10605;52.968;8.844;2022-10-19T21:43:34;13.73;;;6.63;;
20890;SDS011;10605;52.968;8.844;2022-10-19T21:46:04;6.85;;;4.55;;
20890;SDS011;10605;52.968;8.844;2022-10-19T21:48:31;9.80;;;5.50;;
20890;SDS011;10605;52.968;8.844;2022-10-19T21:51:08;7.20;;;5.13;;
20890;SDS011;10605;52.968;8.844;2022-10-19T21:53:55;11.75;;;5.05;;
20890;SDS011;10605;52.968;8.844;2022-10-19T21:56:21;7.00;;;5.20;;
20890;SDS011;10605;52.968;8.844;2022-10-19T21:58:47;9.85;;;4.80;;
20890;SDS011;10605;52.968;8.844;2022-10-19T22:01:14;8.13;;;5.25;;
20890;SDS011;10605;52.968;8.844;2022-10-19T22:03:41;10.57;;;4.85;;
20890;SDS011;10605;52.968;8.844;2022-10-19T22:06:06;12.00;;;5.65;;
20890;SDS011;10605;52.968;8.844;2022-10-19T22:08:33;16.92;;;5.60;;
20890;SDS011;10605;52.968;8.844;2022-10-19T22:11:03;11.65;;;5.45;;
20890;SDS011;10605;52.968;8.844;2022-10-19T22:13:30;11.63;;;5.05;;
20890;SDS011;10605;52.968;8.844;2022-10-19T22:16:09;10.38;;;5.13;;
20890;SDS011;10605;52.968;8.844;2022-10-19T22:18:36;13.38;;;5.30;;
20890;SDS011;10605;52.968;8.844;2022-10-19T22:21:03;6.35;;;4.63;;
20890;SDS011;10605;52.968;8.844;2022-10-19T22:23:34;10.45;;;5.72;;
20890;SDS011;10605;52.968;8.844;2022-10-19T22:26:00;9.25;;;4.68;;
20890;SDS011;10605;52.968;8.844;2022-10-19T22:28:26;5.13;;;4.63;;
20890;SDS011;10605;52.968;8.844;2022-10-19T22:30:56;9.77;;;5.00;;
20890;SDS011;10605;52.968;8.844;2022-10-19T22:33:23;8.65;;;4.88;;
20890;SDS011;10605;52.968;8.844;2022-10-19T22:35:55;5.75;;;5.25;;
20890;SDS011;10605;52.968;8.844;2022-10-19T22:38:22;9.63;;;4.90;;
20890;SDS011;10605;52.968;8.844;2022-10-19T22:40:48;7.30;;;4.70;;